sensor_id;sensor_type;location;lat;lon;timestamp;P1;durP1;ratioP1;P2;durP2;ratioP2
73428;SDS011;61643;49.564;17.412;2022-08-30T00:02:42;6.45;;;2.15;;
73428;SDS011;61643;49.564;17.412;2022-08-30T00:05:08;6.28;;;2.35;;
73428;SDS011;61643;49.564;17.412;2022-08-30T00:07:34;6.40;;;2.00;;
73428;SDS011;61643;49.564;17.412;2022-08-30T00:09:59;5.53;;;2.42;;
73428;SDS011;61643;49.564;17.412;2022-08-30T00:12:25;5.00;;;2.35;;
73428;SDS011;61643;49.564;17.412;2022-08-30T00:14:51;4.30;;;2.42;;
73428;SDS011;61643;49.564;17.412;2022-08-30T00:17:17;4.00;;;2.30;;
73428;SDS011;61643;49.564;17.412;2022-08-30T00:19:43;5.93;;;2.20;;
73428;SDS011;61643;49.564;17.412;2022-08-30T00:22:09;3.35;;;2.03;;
73428;SDS011;61643;49.564;17.412;2022-08-30T00:24:36;6.72;;;2.50;;
73428;SDS011;61643;49.564;17.412;2022-08-30T00:27:02;5.68;;;2.10;;
73428;SDS011;61643;49.564;17.412;2022-08-30T00:29:27;6.88;;;2.35;;
73428;SDS011;61643;49.564;17.412;2022-08-30T00:31:52;4.03;;;2.17;;
73428;SDS011;61643;49.564;17.412;2022-08-30T00:34:18;4.30;;;2.10;;
73428;SDS011;61643;49.564;17.412;2022-08-30T00:36:43;6.60;;;2.60;;
73428;SDS011;61643;49.564;17.412;2022-08-30T00:39:09;4.47;;;2.45;;
73428;SDS011;61643;49.564;17.412;2022-08-30T00:41:35;5.45;;;2.13;;
73428;SDS011;61643;49.564;17.412;2022-08-30T00:44:01;5.10;;;2.22;;
73428;SDS011;61643;49.564;17.412;2022-08-30T00:46:27;5.63;;;2.30;;
73428;SDS011;61643;49.564;17.412;2022-08-30T00:48:52;5.97;;;2.35;;
73428;SDS011;61643;49.564;17.412;2022-08-30T00:51:19;8.90;;;2.47;;
73428;SDS011;61643;49.564;17.412;2022-08-30T00:53:47;5.40;;;2.30;;
73428;SDS011;61643;49.564;17.412;2022-08-30T00:56:15;6.53;;;2.45;;
73428;SDS011;61643;49.564;17.412;2022-08-30T00:58:43;4.72;;;1.90;;
73428;SDS011;61643;49.564;17.412;2022-08-30T01:01:13;5.22;;;2.30;;
73428;SDS011;61643;49.564;17.412;2022-08-30T01:03:38;4.13;;;1.80;;
73428;SDS011;61643;49.564;17.412;2022-08-30T01:06:05;7.28;;;2.30;;
73428;SDS011;61643;49.564;17.412;2022-08-30T01:08:31;6.45;;;2.40;;
73428;SDS011;61643;49.564;17.412;2022-08-30T01:10:57;4.68;;;2.40;;
73428;SDS011;61643;49.564;17.412;2022-08-30T01:13:24;5.05;;;2.45;;
73428;SDS011;61643;49.564;17.412;2022-08-30T01:15:52;3.75;;;2.47;;
73428;SDS011;61643;49.564;17.412;2022-08-30T01:18:18;7.63;;;2.83;;
73428;SDS011;61643;49.564;17.412;2022-08-30T01:23:29;6.72;;;3.08;;
73428;SDS011;61643;49.564;17.412;2022-08-30T01:25:56;6.28;;;2.63;;
73428;SDS011;61643;49.564;17.412;2022-08-30T01:28:23;6.03;;;2.55;;
73428;SDS011;61643;49.564;17.412;2022-08-30T01:30:50;3.97;;;2.40;;
73428;SDS011;61643;49.564;17.412;2022-08-30T01:33:16;5.82;;;2.47;;
73428;SDS011;61643;49.564;17.412;2022-08-30T01:38:41;3.67;;;2.17;;
73428;SDS011;61643;49.564;17.412;2022-08-30T01:41:11;5.35;;;2.35;;
73428;SDS011;61643;49.564;17.412;2022-08-30T01:43:39;5.25;;;2.13;;
73428;SDS011;61643;49.564;17.412;2022-08-30T01:46:05;4.43;;;2.15;;
73428;SDS011;61643;49.564;17.412;2022-08-30T01:48:31;8.60;;;2.60;;
73428;SDS011;61643;49.564;17.412;2022-08-30T01:50:58;5.38;;;2.63;;
73428;SDS011;61643;49.564;17.412;2022-08-30T01:53:23;5.43;;;2.50;;
73428;SDS011;61643;49.564;17.412;2022-08-30T01:55:48;5.83;;;2.40;;
73428;SDS011;61643;49.564;17.412;2022-08-30T01:58:14;5.77;;;2.60;;
73428;SDS011;61643;49.564;17.412;2022-08-30T02:00:39;5.78;;;2.30;;
73428;SDS011;61643;49.564;17.412;2022-08-30T02:03:05;5.20;;;2.30;;
73428;SDS011;61643;49.564;17.412;2022-08-30T02:05:31;7.53;;;2.20;;
73428;SDS011;61643;49.564;17.412;2022-08-30T02:07:56;5.80;;;2.63;;
73428;SDS011;61643;49.564;17.412;2022-08-30T02:10:22;5.53;;;2.42;;
73428;SDS011;61643;49.564;17.412;2022-08-30T02:12:48;4.53;;;2.10;;
73428;SDS011;61643;49.564;17.412;2022-08-30T02:15:13;4.80;;;2.53;;
73428;SDS011;61643;49.564;17.412;2022-08-30T02:17:40;6.35;;;2.35;;
73428;SDS011;61643;49.564;17.412;2022-08-30T02:20:06;5.13;;;2.50;;
73428;SDS011;61643;49.564;17.412;2022-08-30T02:22:33;4.38;;;2.50;;
73428;SDS011;61643;49.564;17.412;2022-08-30T02:24:59;7.32;;;2.50;;
73428;SDS011;61643;49.564;17.412;2022-08-30T02:27:25;7.10;;;2.30;;
73428;SDS011;61643;49.564;17.412;2022-08-30T02:29:51;5.85;;;2.53;;
73428;SDS011;61643;49.564;17.412;2022-08-30T02:32:17;3.28;;;2.30;;
73428;SDS011;61643;49.564;17.412;2022-08-30T02:34:42;6.50;;;2.60;;
73428;SDS011;61643;49.564;17.412;2022-08-30T02:37:08;4.55;;;2.38;;
73428;SDS011;61643;49.564;17.412;2022-08-30T02:39:34;3.53;;;2.25;;
73428;SDS011;61643;49.564;17.412;2022-08-30T02:41:59;5.55;;;2.50;;
73428;SDS011;61643;49.564;17.412;2022-08-30T02:44:24;5.67;;;2.50;;
73428;SDS011;61643;49.564;17.412;2022-08-30T02:46:50;11.23;;;3.33;;
73428;SDS011;61643;49.564;17.412;2022-08-30T02:49:15;5.00;;;2.60;;
73428;SDS011;61643;49.564;17.412;2022-08-30T02:51:41;5.35;;;2.20;;
73428;SDS011;61643;49.564;17.412;2022-08-30T02:54:06;6.50;;;2.70;;
73428;SDS011;61643;49.564;17.412;2022-08-30T02:56:31;6.25;;;2.40;;
73428;SDS011;61643;49.564;17.412;2022-08-30T02:58:57;8.50;;;3.00;;
73428;SDS011;61643;49.564;17.412;2022-08-30T03:01:22;6.35;;;3.00;;
73428;SDS011;61643;49.564;17.412;2022-08-30T03:03:48;6.30;;;2.63;;
73428;SDS011;61643;49.564;17.412;2022-08-30T03:06:14;4.85;;;2.20;;
73428;SDS011;61643;49.564;17.412;2022-08-30T03:08:40;5.30;;;2.67;;
73428;SDS011;61643;49.564;17.412;2022-08-30T03:11:06;6.72;;;2.67;;
73428;SDS011;61643;49.564;17.412;2022-08-30T03:13:32;6.38;;;2.58;;
73428;SDS011;61643;49.564;17.412;2022-08-30T03:15:58;5.43;;;2.63;;
73428;SDS011;61643;49.564;17.412;2022-08-30T03:18:23;5.50;;;2.72;;
73428;SDS011;61643;49.564;17.412;2022-08-30T03:20:49;6.43;;;2.47;;
73428;SDS011;61643;49.564;17.412;2022-08-30T03:23:15;6.28;;;2.65;;
73428;SDS011;61643;49.564;17.412;2022-08-30T03:25:41;5.55;;;2.80;;
73428;SDS011;61643;49.564;17.412;2022-08-30T03:28:07;5.72;;;2.70;;
73428;SDS011;61643;49.564;17.412;2022-08-30T03:30:32;6.33;;;2.60;;
73428;SDS011;61643;49.564;17.412;2022-08-30T03:32:58;5.22;;;2.20;;
73428;SDS011;61643;49.564;17.412;2022-08-30T03:35:24;5.80;;;2.80;;
73428;SDS011;61643;49.564;17.412;2022-08-30T03:37:50;4.90;;;2.67;;
73428;SDS011;61643;49.564;17.412;2022-08-30T03:40:17;6.63;;;3.43;;
73428;SDS011;61643;49.564;17.412;2022-08-30T03:42:44;5.93;;;2.58;;
73428;SDS011;61643;49.564;17.412;2022-08-30T03:45:10;5.35;;;2.60;;
73428;SDS011;61643;49.564;17.412;2022-08-30T03:47:36;5.10;;;2.67;;
73428;SDS011;61643;49.564;17.412;2022-08-30T03:50:02;7.73;;;2.67;;
73428;SDS011;61643;49.564;17.412;2022-08-30T03:52:28;6.43;;;2.75;;
73428;SDS011;61643;49.564;17.412;2022-08-30T03:54:54;5.93;;;2.80;;
73428;SDS011;61643;49.564;17.412;2022-08-30T03:57:19;5.93;;;2.77;;
73428;SDS011;61643;49.564;17.412;2022-08-30T03:59:45;6.18;;;2.67;;
73428;SDS011;61643;49.564;17.412;2022-08-30T04:02:10;8.47;;;2.87;;
73428;SDS011;61643;49.564;17.412;2022-08-30T04:04:35;6.83;;;2.80;;
73428;SDS011;61643;49.564;17.412;2022-08-30T04:07:01;5.35;;;2.72;;
73428;SDS011;61643;49.564;17.412;2022-08-30T04:09:26;5.10;;;2.78;;
73428;SDS011;61643;49.564;17.412;2022-08-30T04:11:52;5.07;;;2.87;;
73428;SDS011;61643;49.564;17.412;2022-08-30T04:14:17;6.60;;;2.63;;
73428;SDS011;61643;49.564;17.412;2022-08-30T04:16:43;5.43;;;2.45;;
73428;SDS011;61643;49.564;17.412;2022-08-30T04:19:08;4.20;;;2.80;;
73428;SDS011;61643;49.564;17.412;2022-08-30T04:21:34;6.97;;;2.92;;
73428;SDS011;61643;49.564;17.412;2022-08-30T04:24:00;6.88;;;2.75;;
73428;SDS011;61643;49.564;17.412;2022-08-30T04:26:26;6.53;;;2.85;;
73428;SDS011;61643;49.564;17.412;2022-08-30T04:28:52;7.00;;;2.80;;
73428;SDS011;61643;49.564;17.412;2022-08-30T04:31:18;8.13;;;2.67;;
73428;SDS011;61643;49.564;17.412;2022-08-30T04:33:44;4.32;;;2.33;;
73428;SDS011;61643;49.564;17.412;2022-08-30T04:36:10;4.47;;;2.70;;
73428;SDS011;61643;49.564;17.412;2022-08-30T04:38:37;7.57;;;2.90;;
73428;SDS011;61643;49.564;17.412;2022-08-30T04:41:10;4.82;;;2.72;;
73428;SDS011;61643;49.564;17.412;2022-08-30T04:43:40;8.25;;;2.80;;
73428;SDS011;61643;49.564;17.412;2022-08-30T04:46:06;5.30;;;2.45;;
73428;SDS011;61643;49.564;17.412;2022-08-30T04:48:32;9.77;;;2.88;;
73428;SDS011;61643;49.564;17.412;2022-08-30T04:50:58;5.03;;;2.80;;
73428;SDS011;61643;49.564;17.412;2022-08-30T04:53:24;8.10;;;2.50;;
73428;SDS011;61643;49.564;17.412;2022-08-30T04:55:49;5.72;;;2.88;;
73428;SDS011;61643;49.564;17.412;2022-08-30T04:58:14;5.53;;;2.90;;
73428;SDS011;61643;49.564;17.412;2022-08-30T05:00:41;5.47;;;2.70;;
73428;SDS011;61643;49.564;17.412;2022-08-30T05:03:08;6.55;;;2.80;;
73428;SDS011;61643;49.564;17.412;2022-08-30T05:05:33;4.30;;;2.63;;
73428;SDS011;61643;49.564;17.412;2022-08-30T05:08:14;5.85;;;3.08;;
73428;SDS011;61643;49.564;17.412;2022-08-30T05:10:42;5.20;;;2.88;;
73428;SDS011;61643;49.564;17.412;2022-08-30T05:15:35;9.05;;;2.90;;
73428;SDS011;61643;49.564;17.412;2022-08-30T05:18:01;6.68;;;2.80;;
73428;SDS011;61643;49.564;17.412;2022-08-30T05:20:28;7.80;;;3.03;;
73428;SDS011;61643;49.564;17.412;2022-08-30T05:22:54;6.30;;;3.03;;
73428;SDS011;61643;49.564;17.412;2022-08-30T05:25:21;8.02;;;2.90;;
73428;SDS011;61643;49.564;17.412;2022-08-30T05:27:48;5.78;;;3.00;;
73428;SDS011;61643;49.564;17.412;2022-08-30T05:30:14;6.47;;;3.10;;
73428;SDS011;61643;49.564;17.412;2022-08-30T05:32:41;5.97;;;2.58;;
73428;SDS011;61643;49.564;17.412;2022-08-30T05:35:07;7.47;;;2.55;;
73428;SDS011;61643;49.564;17.412;2022-08-30T05:37:34;6.68;;;3.00;;
73428;SDS011;61643;49.564;17.412;2022-08-30T05:40:00;5.18;;;2.60;;
73428;SDS011;61643;49.564;17.412;2022-08-30T05:42:25;7.30;;;2.90;;
73428;SDS011;61643;49.564;17.412;2022-08-30T05:44:51;5.10;;;3.00;;
73428;SDS011;61643;49.564;17.412;2022-08-30T05:47:18;5.43;;;3.00;;
73428;SDS011;61643;49.564;17.412;2022-08-30T05:49:44;4.70;;;3.00;;
73428;SDS011;61643;49.564;17.412;2022-08-30T05:52:09;8.37;;;3.07;;
73428;SDS011;61643;49.564;17.412;2022-08-30T05:54:36;5.22;;;2.75;;
73428;SDS011;61643;49.564;17.412;2022-08-30T05:57:02;5.85;;;3.08;;
73428;SDS011;61643;49.564;17.412;2022-08-30T05:59:27;6.22;;;2.83;;
73428;SDS011;61643;49.564;17.412;2022-08-30T06:01:55;6.13;;;3.00;;
73428;SDS011;61643;49.564;17.412;2022-08-30T06:04:22;6.53;;;3.33;;
73428;SDS011;61643;49.564;17.412;2022-08-30T06:06:48;7.50;;;3.30;;
73428;SDS011;61643;49.564;17.412;2022-08-30T06:09:13;6.37;;;3.10;;
73428;SDS011;61643;49.564;17.412;2022-08-30T06:11:39;6.65;;;3.40;;
73428;SDS011;61643;49.564;17.412;2022-08-30T06:14:05;8.45;;;3.00;;
73428;SDS011;61643;49.564;17.412;2022-08-30T06:16:31;5.65;;;3.50;;
73428;SDS011;61643;49.564;17.412;2022-08-30T06:18:57;7.10;;;3.10;;
73428;SDS011;61643;49.564;17.412;2022-08-30T06:21:25;10.57;;;3.72;;
73428;SDS011;61643;49.564;17.412;2022-08-30T06:23:55;5.50;;;3.22;;
73428;SDS011;61643;49.564;17.412;2022-08-30T06:26:22;5.03;;;2.90;;
73428;SDS011;61643;49.564;17.412;2022-08-30T06:28:48;7.93;;;3.03;;
73428;SDS011;61643;49.564;17.412;2022-08-30T06:31:14;6.15;;;2.60;;
73428;SDS011;61643;49.564;17.412;2022-08-30T06:33:41;6.32;;;2.78;;
73428;SDS011;61643;49.564;17.412;2022-08-30T06:36:09;5.00;;;2.60;;
73428;SDS011;61643;49.564;17.412;2022-08-30T06:38:38;5.65;;;2.60;;
73428;SDS011;61643;49.564;17.412;2022-08-30T06:41:08;8.95;;;3.08;;
73428;SDS011;61643;49.564;17.412;2022-08-30T06:43:36;6.53;;;2.75;;
73428;SDS011;61643;49.564;17.412;2022-08-30T06:46:02;7.60;;;2.95;;
73428;SDS011;61643;49.564;17.412;2022-08-30T06:48:29;8.38;;;3.20;;
73428;SDS011;61643;49.564;17.412;2022-08-30T06:50:54;7.20;;;3.20;;
73428;SDS011;61643;49.564;17.412;2022-08-30T06:53:20;7.43;;;2.92;;
73428;SDS011;61643;49.564;17.412;2022-08-30T06:55:53;7.03;;;3.03;;
73428;SDS011;61643;49.564;17.412;2022-08-30T06:58:29;7.88;;;3.13;;
73428;SDS011;61643;49.564;17.412;2022-08-30T07:00:55;7.10;;;3.60;;
73428;SDS011;61643;49.564;17.412;2022-08-30T07:03:22;7.63;;;3.67;;
73428;SDS011;61643;49.564;17.412;2022-08-30T07:05:47;8.02;;;3.40;;
73428;SDS011;61643;49.564;17.412;2022-08-30T07:08:13;5.68;;;3.17;;
73428;SDS011;61643;49.564;17.412;2022-08-30T07:10:39;8.43;;;3.20;;
73428;SDS011;61643;49.564;17.412;2022-08-30T07:13:05;7.03;;;3.38;;
73428;SDS011;61643;49.564;17.412;2022-08-30T07:15:31;7.63;;;3.42;;
73428;SDS011;61643;49.564;17.412;2022-08-30T07:17:57;6.07;;;3.30;;
73428;SDS011;61643;49.564;17.412;2022-08-30T07:20:41;4.78;;;2.90;;
73428;SDS011;61643;49.564;17.412;2022-08-30T07:23:07;7.23;;;3.17;;
73428;SDS011;61643;49.564;17.412;2022-08-30T07:25:34;8.90;;;3.63;;
73428;SDS011;61643;49.564;17.412;2022-08-30T07:28:04;5.43;;;2.60;;
73428;SDS011;61643;49.564;17.412;2022-08-30T07:30:30;7.13;;;2.65;;
73428;SDS011;61643;49.564;17.412;2022-08-30T07:32:56;6.00;;;3.25;;
73428;SDS011;61643;49.564;17.412;2022-08-30T07:35:21;5.63;;;2.92;;
73428;SDS011;61643;49.564;17.412;2022-08-30T07:37:47;6.85;;;2.90;;
73428;SDS011;61643;49.564;17.412;2022-08-30T07:40:12;6.03;;;2.40;;
73428;SDS011;61643;49.564;17.412;2022-08-30T07:42:38;6.43;;;2.88;;
73428;SDS011;61643;49.564;17.412;2022-08-30T07:45:05;7.68;;;3.47;;
73428;SDS011;61643;49.564;17.412;2022-08-30T07:47:32;9.55;;;3.08;;
73428;SDS011;61643;49.564;17.412;2022-08-30T07:49:58;7.35;;;3.00;;
73428;SDS011;61643;49.564;17.412;2022-08-30T07:52:24;7.03;;;3.05;;
73428;SDS011;61643;49.564;17.412;2022-08-30T07:54:52;4.78;;;2.42;;
73428;SDS011;61643;49.564;17.412;2022-08-30T07:57:19;8.32;;;3.22;;
73428;SDS011;61643;49.564;17.412;2022-08-30T07:59:44;5.88;;;2.97;;
73428;SDS011;61643;49.564;17.412;2022-08-30T08:02:09;7.20;;;2.97;;
73428;SDS011;61643;49.564;17.412;2022-08-30T08:04:35;5.90;;;2.67;;
73428;SDS011;61643;49.564;17.412;2022-08-30T08:07:00;6.00;;;2.93;;
73428;SDS011;61643;49.564;17.412;2022-08-30T08:09:26;4.88;;;2.70;;
73428;SDS011;61643;49.564;17.412;2022-08-30T08:11:51;8.23;;;2.92;;
73428;SDS011;61643;49.564;17.412;2022-08-30T08:14:16;8.32;;;3.05;;
73428;SDS011;61643;49.564;17.412;2022-08-30T08:16:42;7.97;;;2.75;;
73428;SDS011;61643;49.564;17.412;2022-08-30T08:19:09;8.68;;;3.30;;
73428;SDS011;61643;49.564;17.412;2022-08-30T08:21:36;5.03;;;2.47;;
73428;SDS011;61643;49.564;17.412;2022-08-30T08:24:02;7.93;;;3.00;;
73428;SDS011;61643;49.564;17.412;2022-08-30T08:26:28;6.75;;;2.67;;
73428;SDS011;61643;49.564;17.412;2022-08-30T08:28:54;7.32;;;3.10;;
73428;SDS011;61643;49.564;17.412;2022-08-30T08:31:21;10.43;;;2.80;;
73428;SDS011;61643;49.564;17.412;2022-08-30T08:33:47;5.68;;;2.90;;
73428;SDS011;61643;49.564;17.412;2022-08-30T08:36:13;5.93;;;2.97;;
73428;SDS011;61643;49.564;17.412;2022-08-30T08:38:39;8.35;;;2.80;;
73428;SDS011;61643;49.564;17.412;2022-08-30T08:41:24;5.47;;;3.15;;
73428;SDS011;61643;49.564;17.412;2022-08-30T08:47:17;6.88;;;2.95;;
73428;SDS011;61643;49.564;17.412;2022-08-30T08:50:08;6.43;;;3.08;;
73428;SDS011;61643;49.564;17.412;2022-08-30T08:52:45;6.43;;;2.80;;
73428;SDS011;61643;49.564;17.412;2022-08-30T08:55:50;7.70;;;2.92;;
73428;SDS011;61643;49.564;17.412;2022-08-30T08:58:26;5.20;;;2.83;;
73428;SDS011;61643;49.564;17.412;2022-08-30T09:00:55;7.18;;;3.00;;
73428;SDS011;61643;49.564;17.412;2022-08-30T09:03:23;6.65;;;2.97;;
73428;SDS011;61643;49.564;17.412;2022-08-30T09:05:51;7.40;;;2.55;;
73428;SDS011;61643;49.564;17.412;2022-08-30T09:08:18;4.03;;;2.40;;
73428;SDS011;61643;49.564;17.412;2022-08-30T09:10:52;6.45;;;2.80;;
73428;SDS011;61643;49.564;17.412;2022-08-30T09:13:21;5.43;;;2.50;;
73428;SDS011;61643;49.564;17.412;2022-08-30T09:15:49;5.65;;;2.45;;
73428;SDS011;61643;49.564;17.412;2022-08-30T09:18:15;5.75;;;2.30;;
73428;SDS011;61643;49.564;17.412;2022-08-30T09:20:43;4.43;;;2.60;;
73428;SDS011;61643;49.564;17.412;2022-08-30T09:25:39;4.72;;;2.25;;
73428;SDS011;61643;49.564;17.412;2022-08-30T09:29:01;6.47;;;2.58;;
73428;SDS011;61643;49.564;17.412;2022-08-30T09:31:20;6.00;;;2.85;;
73428;SDS011;61643;49.564;17.412;2022-08-30T09:33:54;7.47;;;2.75;;
73428;SDS011;61643;49.564;17.412;2022-08-30T09:39:04;6.32;;;2.40;;
73428;SDS011;61643;49.564;17.412;2022-08-30T09:41:39;9.25;;;2.60;;
73428;SDS011;61643;49.564;17.412;2022-08-30T09:46:32;5.53;;;2.60;;
73428;SDS011;61643;49.564;17.412;2022-08-30T09:48:58;9.13;;;2.95;;
73428;SDS011;61643;49.564;17.412;2022-08-30T09:51:28;4.73;;;2.50;;
73428;SDS011;61643;49.564;17.412;2022-08-30T10:04:38;10.90;;;3.47;;
73428;SDS011;61643;49.564;17.412;2022-08-30T10:07:12;5.00;;;2.40;;
73428;SDS011;61643;49.564;17.412;2022-08-30T10:09:48;7.35;;;2.70;;
73428;SDS011;61643;49.564;17.412;2022-08-30T10:20:34;4.93;;;2.47;;
73428;SDS011;61643;49.564;17.412;2022-08-30T10:23:05;6.03;;;2.83;;
73428;SDS011;61643;49.564;17.412;2022-08-30T10:25:40;5.35;;;2.38;;
73428;SDS011;61643;49.564;17.412;2022-08-30T10:30:43;6.00;;;2.50;;
73428;SDS011;61643;49.564;17.412;2022-08-30T10:33:17;4.60;;;2.35;;
73428;SDS011;61643;49.564;17.412;2022-08-30T10:36:07;3.22;;;2.30;;
73428;SDS011;61643;49.564;17.412;2022-08-30T10:38:36;9.00;;;2.72;;
73428;SDS011;61643;49.564;17.412;2022-08-30T10:41:18;4.18;;;2.40;;
73428;SDS011;61643;49.564;17.412;2022-08-30T10:49:46;5.75;;;2.88;;
73428;SDS011;61643;49.564;17.412;2022-08-30T10:52:19;5.10;;;2.60;;
73428;SDS011;61643;49.564;17.412;2022-08-30T10:54:50;6.78;;;2.55;;
73428;SDS011;61643;49.564;17.412;2022-08-30T10:57:23;4.80;;;2.38;;
73428;SDS011;61643;49.564;17.412;2022-08-30T10:59:50;4.95;;;2.38;;
73428;SDS011;61643;49.564;17.412;2022-08-30T11:08:25;7.40;;;2.75;;
73428;SDS011;61643;49.564;17.412;2022-08-30T11:11:16;3.33;;;2.25;;
73428;SDS011;61643;49.564;17.412;2022-08-30T11:14:03;6.22;;;2.97;;
73428;SDS011;61643;49.564;17.412;2022-08-30T11:16:35;4.78;;;2.55;;
73428;SDS011;61643;49.564;17.412;2022-08-30T11:19:11;5.93;;;2.35;;
73428;SDS011;61643;49.564;17.412;2022-08-30T11:21:41;3.92;;;2.13;;
73428;SDS011;61643;49.564;17.412;2022-08-30T11:24:12;5.22;;;2.47;;
73428;SDS011;61643;49.564;17.412;2022-08-30T11:29:34;3.67;;;2.63;;
73428;SDS011;61643;49.564;17.412;2022-08-30T11:42:45;5.95;;;2.50;;
73428;SDS011;61643;49.564;17.412;2022-08-30T11:50:28;6.03;;;2.45;;
73428;SDS011;61643;49.564;17.412;2022-08-30T11:55:40;3.90;;;2.25;;
73428;SDS011;61643;49.564;17.412;2022-08-30T12:00:44;6.18;;;2.30;;
73428;SDS011;61643;49.564;17.412;2022-08-30T12:10:48;3.50;;;1.98;;
73428;SDS011;61643;49.564;17.412;2022-08-30T12:16:14;3.80;;;1.92;;
73428;SDS011;61643;49.564;17.412;2022-08-30T12:18:46;4.10;;;2.05;;
73428;SDS011;61643;49.564;17.412;2022-08-30T12:24:02;3.53;;;1.88;;
73428;SDS011;61643;49.564;17.412;2022-08-30T12:26:44;3.08;;;1.83;;
73428;SDS011;61643;49.564;17.412;2022-08-30T12:31:50;5.25;;;1.92;;
73428;SDS011;61643;49.564;17.412;2022-08-30T12:44:37;3.00;;;2.05;;
73428;SDS011;61643;49.564;17.412;2022-08-30T12:47:04;3.88;;;1.88;;
73428;SDS011;61643;49.564;17.412;2022-08-30T12:49:32;5.47;;;2.17;;
73428;SDS011;61643;49.564;17.412;2022-08-30T12:52:17;3.22;;;2.10;;
73428;SDS011;61643;49.564;17.412;2022-08-30T12:54:47;3.75;;;2.10;;
73428;SDS011;61643;49.564;17.412;2022-08-30T12:57:34;3.35;;;1.80;;
73428;SDS011;61643;49.564;17.412;2022-08-30T13:00:00;3.47;;;1.90;;
73428;SDS011;61643;49.564;17.412;2022-08-30T13:02:27;5.30;;;1.67;;
73428;SDS011;61643;49.564;17.412;2022-08-30T13:10:49;3.85;;;1.90;;
73428;SDS011;61643;49.564;17.412;2022-08-30T13:13:32;5.85;;;2.20;;
73428;SDS011;61643;49.564;17.412;2022-08-30T13:18:41;3.00;;;1.95;;
73428;SDS011;61643;49.564;17.412;2022-08-30T13:21:18;3.30;;;1.70;;
73428;SDS011;61643;49.564;17.412;2022-08-30T13:23:47;3.55;;;1.90;;
73428;SDS011;61643;49.564;17.412;2022-08-30T13:26:16;2.58;;;1.80;;
73428;SDS011;61643;49.564;17.412;2022-08-30T13:28:46;3.80;;;2.10;;
73428;SDS011;61643;49.564;17.412;2022-08-30T13:31:12;4.43;;;2.17;;
73428;SDS011;61643;49.564;17.412;2022-08-30T13:33:38;3.67;;;1.70;;
73428;SDS011;61643;49.564;17.412;2022-08-30T13:36:03;5.07;;;1.90;;
73428;SDS011;61643;49.564;17.412;2022-08-30T13:38:28;2.42;;;1.42;;
73428;SDS011;61643;49.564;17.412;2022-08-30T13:40:54;3.13;;;2.03;;
73428;SDS011;61643;49.564;17.412;2022-08-30T13:43:19;3.47;;;1.80;;
73428;SDS011;61643;49.564;17.412;2022-08-30T13:45:44;2.97;;;1.90;;
73428;SDS011;61643;49.564;17.412;2022-08-30T13:48:10;3.63;;;2.05;;
73428;SDS011;61643;49.564;17.412;2022-08-30T13:50:38;2.90;;;1.73;;
73428;SDS011;61643;49.564;17.412;2022-08-30T13:53:03;3.38;;;1.60;;
73428;SDS011;61643;49.564;17.412;2022-08-30T13:55:29;3.47;;;2.03;;
73428;SDS011;61643;49.564;17.412;2022-08-30T13:57:55;3.92;;;1.63;;
73428;SDS011;61643;49.564;17.412;2022-08-30T14:00:21;3.70;;;1.75;;
73428;SDS011;61643;49.564;17.412;2022-08-30T14:02:47;5.32;;;1.70;;
73428;SDS011;61643;49.564;17.412;2022-08-30T14:05:14;3.45;;;1.77;;
73428;SDS011;61643;49.564;17.412;2022-08-30T14:07:40;3.92;;;2.00;;
73428;SDS011;61643;49.564;17.412;2022-08-30T14:10:05;2.50;;;1.70;;
73428;SDS011;61643;49.564;17.412;2022-08-30T14:12:31;3.70;;;1.75;;
73428;SDS011;61643;49.564;17.412;2022-08-30T14:14:56;2.27;;;1.47;;
73428;SDS011;61643;49.564;17.412;2022-08-30T14:17:22;2.37;;;1.73;;
73428;SDS011;61643;49.564;17.412;2022-08-30T14:19:53;1.85;;;1.33;;
73428;SDS011;61643;49.564;17.412;2022-08-30T14:22:18;3.00;;;1.48;;
73428;SDS011;61643;49.564;17.412;2022-08-30T14:24:44;1.77;;;1.38;;
73428;SDS011;61643;49.564;17.412;2022-08-30T14:27:10;1.63;;;1.40;;
73428;SDS011;61643;49.564;17.412;2022-08-30T14:29:35;2.33;;;1.40;;
73428;SDS011;61643;49.564;17.412;2022-08-30T14:32:00;2.43;;;1.40;;
73428;SDS011;61643;49.564;17.412;2022-08-30T14:34:26;3.10;;;1.42;;
73428;SDS011;61643;49.564;17.412;2022-08-30T14:36:51;2.33;;;1.30;;
73428;SDS011;61643;49.564;17.412;2022-08-30T14:39:18;1.98;;;1.30;;
73428;SDS011;61643;49.564;17.412;2022-08-30T14:41:45;3.00;;;1.30;;
73428;SDS011;61643;49.564;17.412;2022-08-30T14:44:12;1.95;;;1.52;;
73428;SDS011;61643;49.564;17.412;2022-08-30T14:46:39;1.75;;;1.20;;
73428;SDS011;61643;49.564;17.412;2022-08-30T14:49:05;2.75;;;1.33;;
73428;SDS011;61643;49.564;17.412;2022-08-30T14:51:30;1.90;;;1.30;;
73428;SDS011;61643;49.564;17.412;2022-08-30T14:53:55;1.20;;;1.10;;
73428;SDS011;61643;49.564;17.412;2022-08-30T14:56:22;2.20;;;1.33;;
73428;SDS011;61643;49.564;17.412;2022-08-30T14:58:48;1.95;;;1.50;;
73428;SDS011;61643;49.564;17.412;2022-08-30T15:01:18;3.33;;;1.48;;
73428;SDS011;61643;49.564;17.412;2022-08-30T15:03:46;2.75;;;1.33;;
73428;SDS011;61643;49.564;17.412;2022-08-30T15:06:11;3.72;;;1.50;;
73428;SDS011;61643;49.564;17.412;2022-08-30T15:08:37;2.70;;;1.20;;
73428;SDS011;61643;49.564;17.412;2022-08-30T15:11:06;5.20;;;1.20;;
73428;SDS011;61643;49.564;17.412;2022-08-30T15:13:33;1.80;;;1.48;;
73428;SDS011;61643;49.564;17.412;2022-08-30T15:15:59;1.58;;;1.35;;
73428;SDS011;61643;49.564;17.412;2022-08-30T15:18:24;2.07;;;1.33;;
73428;SDS011;61643;49.564;17.412;2022-08-30T15:20:50;1.50;;;1.30;;
73428;SDS011;61643;49.564;17.412;2022-08-30T15:23:15;1.52;;;1.30;;
73428;SDS011;61643;49.564;17.412;2022-08-30T15:25:41;4.50;;;1.70;;
73428;SDS011;61643;49.564;17.412;2022-08-30T15:28:07;3.35;;;1.42;;
73428;SDS011;61643;49.564;17.412;2022-08-30T15:30:33;7.82;;;3.85;;
73428;SDS011;61643;49.564;17.412;2022-08-30T15:32:59;5.85;;;2.90;;
73428;SDS011;61643;49.564;17.412;2022-08-30T15:35:24;2.50;;;1.80;;
73428;SDS011;61643;49.564;17.412;2022-08-30T15:37:49;4.13;;;1.70;;
73428;SDS011;61643;49.564;17.412;2022-08-30T15:40:15;1.88;;;1.30;;
73428;SDS011;61643;49.564;17.412;2022-08-30T15:42:40;2.05;;;1.40;;
73428;SDS011;61643;49.564;17.412;2022-08-30T15:45:06;2.77;;;1.50;;
73428;SDS011;61643;49.564;17.412;2022-08-30T15:47:32;1.40;;;1.15;;
73428;SDS011;61643;49.564;17.412;2022-08-30T15:49:59;3.50;;;1.40;;
73428;SDS011;61643;49.564;17.412;2022-08-30T15:52:27;2.40;;;1.83;;
73428;SDS011;61643;49.564;17.412;2022-08-30T15:54:53;2.90;;;1.80;;
73428;SDS011;61643;49.564;17.412;2022-08-30T15:57:18;2.10;;;1.60;;
73428;SDS011;61643;49.564;17.412;2022-08-30T15:59:44;2.90;;;1.27;;
73428;SDS011;61643;49.564;17.412;2022-08-30T16:02:09;3.05;;;1.40;;
73428;SDS011;61643;49.564;17.412;2022-08-30T16:04:35;1.92;;;1.10;;
73428;SDS011;61643;49.564;17.412;2022-08-30T16:07:01;1.30;;;1.20;;
73428;SDS011;61643;49.564;17.412;2022-08-30T16:09:27;1.80;;;1.30;;
73428;SDS011;61643;49.564;17.412;2022-08-30T16:11:53;3.65;;;1.40;;
73428;SDS011;61643;49.564;17.412;2022-08-30T16:14:18;1.63;;;1.37;;
73428;SDS011;61643;49.564;17.412;2022-08-30T16:16:43;2.00;;;1.20;;
73428;SDS011;61643;49.564;17.412;2022-08-30T16:19:10;1.75;;;1.30;;
73428;SDS011;61643;49.564;17.412;2022-08-30T16:21:36;2.60;;;1.30;;
73428;SDS011;61643;49.564;17.412;2022-08-30T16:24:02;1.90;;;1.60;;
73428;SDS011;61643;49.564;17.412;2022-08-30T16:26:30;2.63;;;1.35;;
73428;SDS011;61643;49.564;17.412;2022-08-30T16:28:56;2.13;;;1.23;;